Time;durP1;ratioP1;P1;durP2;ratioP2;P2;SDS_P1;SDS_P2;PMS_P1;PMS_P2;Temp;Humidity;BMP_temperature;BMP_pressure;BME280_temperature;BME280_humidity;BME280_pressure;Samples;Min_cycle;Max_cycle;Signal;HPM_P1;HPM_P2
2023/11/22 00:02:16;;;;;;;20.70;14.65;;;;;;;;;;4958754;29;20031;-70
2023/11/22 00:04:41;;;;;;;111.85;48.13;;;;;;;;;;4956635;29;20062;-70
2023/11/22 00:07:07;;;;;;;25.48;18.05;;;;;;;;;;4958444;28;20045;-70
2023/11/22 00:09:32;;;;;;;17.90;16.05;;;;;;;;;;4958186;28;20030;-69
2023/11/22 00:11:59;;;;;;;14.57;13.18;;;;;;;;;;4956770;29;20485;-69
2023/11/22 00:14:25;;;;;;;12.90;11.70;;;;;;;;;;4958067;28;20023;-70
2023/11/22 00:16:51;;;;;;;13.18;11.88;;;;;;;;;;4958434;28;20074;-71
2023/11/22 00:19:18;;;;;;;53.67;38.60;;;;;;;;;;4958147;29;20046;-70
2023/11/22 00:21:43;;;;;;;14.02;12.82;;;;;;;;;;4940551;29;20019;-70
2023/11/22 00:24:09;;;;;;;66.93;42.92;;;;;;;;;;4958224;29;20074;-69
2023/11/22 00:26:34;;;;;;;46.53;34.05;;;;;;;;;;4958041;28;20027;-70
2023/11/22 00:29:01;;;;;;;58.00;39.92;;;;;;;;;;4956852;29;20028;-70
2023/11/22 00:31:26;;;;;;;30.75;23.52;;;;;;;;;;4958091;28;20482;-71
2023/11/22 00:33:52;;;;;;;16.67;15.00;;;;;;;;;;4957864;28;20027;-71
2023/11/22 00:36:17;;;;;;;21.83;18.58;;;;;;;;;;4956986;29;20090;-70
2023/11/22 00:38:43;;;;;;;22.77;20.15;;;;;;;;;;4956584;29;20028;-70
2023/11/22 00:41:09;;;;;;;12.90;11.70;;;;;;;;;;4957856;28;20486;-71
2023/11/22 00:43:35;;;;;;;16.88;15.25;;;;;;;;;;4957958;28;20031;-70
2023/11/22 00:46:01;;;;;;;26.17;23.42;;;;;;;;;;4961488;28;20050;-70
2023/11/22 00:48:26;;;;;;;23.05;20.60;;;;;;;;;;4976883;28;20033;-70
2023/11/22 00:50:52;;;;;;;11.98;10.82;;;;;;;;;;4959487;28;20037;-70
2023/11/22 00:53:18;;;;;;;13.90;12.52;;;;;;;;;;4976476;28;20035;-69
2023/11/22 00:55:43;;;;;;;12.50;11.40;;;;;;;;;;4959307;28;20027;-70
2023/11/22 00:58:09;;;;;;;26.38;23.55;;;;;;;;;;4976870;28;20027;-70
2023/11/22 01:00:35;;;;;;;12.80;11.55;;;;;;;;;;4977061;28;20085;-71
2023/11/22 01:03:00;;;;;;;19.27;17.25;;;;;;;;;;4977029;28;20084;-71
2023/11/22 01:05:26;;;;;;;14.43;12.68;;;;;;;;;;4958983;28;20477;-70
2023/11/22 01:07:51;;;;;;;14.70;13.18;;;;;;;;;;4976178;28;20471;-71
2023/11/22 01:10:17;;;;;;;11.70;10.50;;;;;;;;;;4976473;28;20044;-70
2023/11/22 01:12:42;;;;;;;12.48;10.90;;;;;;;;;;4959223;28;20113;-71
2023/11/22 01:15:08;;;;;;;12.65;11.45;;;;;;;;;;4959291;28;20053;-71
2023/11/22 01:17:34;;;;;;;16.38;14.18;;;;;;;;;;4976234;28;20035;-69
2023/11/22 01:20:01;;;;;;;15.02;13.52;;;;;;;;;;4976336;28;20492;-64
2023/11/22 01:22:27;;;;;;;12.02;10.82;;;;;;;;;;4976715;28;20050;-65
2023/11/22 01:24:52;;;;;;;11.80;10.38;;;;;;;;;;4959217;28;20034;-65
2023/11/22 01:27:18;;;;;;;33.42;25.15;;;;;;;;;;4976394;28;20038;-65
2023/11/22 01:29:43;;;;;;;17.58;14.90;;;;;;;;;;4959101;28;20023;-65
2023/11/22 01:32:09;;;;;;;14.07;10.82;;;;;;;;;;4975705;28;20477;-65
2023/11/22 01:34:34;;;;;;;19.67;17.60;;;;;;;;;;4975543;28;20127;-65
2023/11/22 01:37:00;;;;;;;22.33;18.35;;;;;;;;;;4958920;28;20026;-65
2023/11/22 01:39:26;;;;;;;35.00;24.48;;;;;;;;;;4958777;28;20046;-66
2023/11/22 01:41:52;;;;;;;35.15;24.35;;;;;;;;;;4958495;28;20050;-69
2023/11/22 01:44:18;;;;;;;19.13;14.77;;;;;;;;;;4976027;28;20022;-68
2023/11/22 01:46:43;;;;;;;17.88;14.77;;;;;;;;;;4958612;28;20058;-68
2023/11/22 01:49:12;;;;;;;22.83;17.38;;;;;;;;;;4974437;28;20093;-70
2023/11/22 01:51:39;;;;;;;20.08;17.33;;;;;;;;;;4975984;28;20031;-70
2023/11/22 01:54:06;;;;;;;25.90;18.23;;;;;;;;;;4975447;28;20454;-67
2023/11/22 01:56:34;;;;;;;23.65;18.85;;;;;;;;;;4975485;28;20031;-68
2023/11/22 01:59:00;;;;;;;19.15;14.90;;;;;;;;;;4958238;28;20047;-68
2023/11/22 02:01:26;;;;;;;16.83;15.02;;;;;;;;;;4957864;28;20397;-68
2023/11/22 02:03:53;;;;;;;16.42;14.07;;;;;;;;;;4957993;28;20477;-68
2023/11/22 02:06:19;;;;;;;25.75;18.52;;;;;;;;;;4975400;28;20456;-68
2023/11/22 02:08:44;;;;;;;22.40;17.88;;;;;;;;;;4975321;28;20034;-63
2023/11/22 02:11:10;;;;;;;34.60;22.25;;;;;;;;;;4975074;28;20070;-68
2023/11/22 02:13:36;;;;;;;25.85;17.95;;;;;;;;;;4975606;28;20027;-69
2023/11/22 02:16:02;;;;;;;16.02;13.52;;;;;;;;;;4957813;28;20031;-69
2023/11/22 02:18:28;;;;;;;31.50;19.17;;;;;;;;;;4957597;28;20031;-69
2023/11/22 02:20:54;;;;;;;15.43;12.40;;;;;;;;;;4957665;28;20027;-71
2023/11/22 02:23:20;;;;;;;19.85;15.05;;;;;;;;;;4958170;28;20030;-66
2023/11/22 02:25:46;;;;;;;29.88;20.35;;;;;;;;;;4957744;28;20034;-65
2023/11/22 02:28:11;;;;;;;23.85;17.13;;;;;;;;;;4958140;28;20125;-71
2023/11/22 02:30:37;;;;;;;14.02;11.85;;;;;;;;;;4958261;28;20077;-70
2023/11/22 02:33:03;;;;;;;13.95;11.60;;;;;;;;;;4957647;28;20031;-70
2023/11/22 02:35:28;;;;;;;12.95;11.60;;;;;;;;;;4957540;28;20042;-70
2023/11/22 02:37:54;;;;;;;30.00;18.15;;;;;;;;;;4975783;28;20031;-69
2023/11/22 02:40:20;;;;;;;27.95;18.90;;;;;;;;;;4974868;28;20536;-67
2023/11/22 02:42:46;;;;;;;12.55;11.27;;;;;;;;;;4957442;28;20389;-68
2023/11/22 02:45:12;;;;;;;21.55;14.68;;;;;;;;;;4956993;28;20104;-68
2023/11/22 02:47:37;;;;;;;32.50;19.80;;;;;;;;;;4957652;28;20046;-69
2023/11/22 02:50:05;;;;;;;33.17;18.65;;;;;;;;;;4974966;28;20035;-70
2023/11/22 02:52:30;;;;;;;30.23;18.88;;;;;;;;;;4975308;28;20039;-71
2023/11/22 02:54:56;;;;;;;14.57;13.18;;;;;;;;;;4975232;28;20085;-69
2023/11/22 02:57:21;;;;;;;13.38;11.98;;;;;;;;;;4957649;28;20459;-69
2023/11/22 02:59:47;;;;;;;14.65;12.80;;;;;;;;;;4957465;28;20034;-70
2023/11/22 03:02:12;;;;;;;14.18;11.57;;;;;;;;;;4958113;28;20117;-71
2023/11/22 03:04:38;;;;;;;12.90;11.48;;;;;;;;;;4975258;28;20062;-71
2023/11/22 03:07:06;;;;;;;16.05;13.70;;;;;;;;;;4957061;28;20039;-70
2023/11/22 03:09:31;;;;;;;14.40;12.00;;;;;;;;;;4975132;28;20035;-70
2023/11/22 03:11:57;;;;;;;14.93;12.40;;;;;;;;;;4975052;28;20034;-70
2023/11/22 03:14:22;;;;;;;16.58;13.10;;;;;;;;;;4974539;28;20050;-70
2023/11/22 03:16:49;;;;;;;19.23;15.10;;;;;;;;;;4975095;28;20035;-71
2023/11/22 03:19:14;;;;;;;17.38;14.27;;;;;;;;;;4957310;28;20119;-71
2023/11/22 03:21:40;;;;;;;19.30;15.25;;;;;;;;;;4975127;28;20030;-70
2023/11/22 03:24:08;;;;;;;19.05;14.70;;;;;;;;;;4974925;28;20026;-70
2023/11/22 03:26:34;;;;;;;18.05;14.23;;;;;;;;;;4974998;28;20058;-70
2023/11/22 03:28:59;;;;;;;17.60;14.73;;;;;;;;;;4976234;28;20433;-69
2023/11/22 03:31:25;;;;;;;17.77;14.65;;;;;;;;;;4961121;28;20027;-68
2023/11/22 03:33:50;;;;;;;15.30;12.75;;;;;;;;;;4978561;28;20059;-69
2023/11/22 03:36:15;;;;;;;14.90;12.05;;;;;;;;;;4978347;28;20033;-71
2023/11/22 03:38:41;;;;;;;12.13;10.82;;;;;;;;;;4961005;28;20022;-72
2023/11/22 03:41:06;;;;;;;14.68;11.85;;;;;;;;;;4961177;28;20134;-71
2023/11/22 03:43:32;;;;;;;12.60;9.82;;;;;;;;;;4961048;28;20031;-69
2023/11/22 03:45:57;;;;;;;12.00;10.38;;;;;;;;;;4956512;29;20472;-70
2023/11/22 03:48:23;;;;;;;14.82;12.23;;;;;;;;;;4958392;28;20394;-70
2023/11/22 03:50:51;;;;;;;18.50;12.85;;;;;;;;;;4957355;29;20370;-68
2023/11/22 03:53:17;;;;;;;14.52;12.98;;;;;;;;;;4957633;29;20119;-69
2023/11/22 03:55:42;;;;;;;15.10;12.68;;;;;;;;;;4958080;28;20037;-71
2023/11/22 03:58:07;;;;;;;15.90;12.50;;;;;;;;;;4958851;28;20456;-70
2023/11/22 04:00:33;;;;;;;14.88;12.25;;;;;;;;;;4957296;29;20031;-70
2023/11/22 04:03:01;;;;;;;10.52;9.38;;;;;;;;;;4959015;28;20039;-71
2023/11/22 04:05:27;;;;;;;16.27;12.70;;;;;;;;;;4958092;28;20023;-71
2023/11/22 04:07:52;;;;;;;15.32;12.90;;;;;;;;;;4958640;28;20038;-71
2023/11/22 04:10:19;;;;;;;16.35;12.32;;;;;;;;;;4956769;29;20034;-71
2023/11/22 04:12:44;;;;;;;12.35;10.00;;;;;;;;;;4958342;28;20118;-70
2023/11/22 04:15:10;;;;;;;14.10;11.98;;;;;;;;;;4958280;28;20110;-68
2023/11/22 04:17:36;;;;;;;14.43;11.23;;;;;;;;;;4958156;28;20378;-67
2023/11/22 04:20:06;;;;;;;14.25;11.55;;;;;;;;;;4957240;28;20035;-68
2023/11/22 04:22:33;;;;;;;14.25;11.93;;;;;;;;;;4958364;28;20438;-68
2023/11/22 04:24:59;;;;;;;13.35;11.98;;;;;;;;;;4956728;29;20501;-69
2023/11/22 04:27:24;;;;;;;12.57;10.55;;;;;;;;;;4956330;29;20120;-67
2023/11/22 04:29:50;;;;;;;13.48;10.48;;;;;;;;;;4956597;29;20086;-66
2023/11/22 04:32:15;;;;;;;13.73;10.80;;;;;;;;;;4958052;28;20027;-67
2023/11/22 04:34:40;;;;;;;12.52;10.57;;;;;;;;;;4957753;28;20118;-67
2023/11/22 04:37:06;;;;;;;12.10;10.07;;;;;;;;;;4958120;28;20034;-70
2023/11/22 04:39:32;;;;;;;11.02;8.98;;;;;;;;;;4957168;28;20039;-69
2023/11/22 04:41:57;;;;;;;12.00;10.50;;;;;;;;;;4955118;29;20027;-66
2023/11/22 04:44:22;;;;;;;12.60;10.13;;;;;;;;;;4956416;29;20027;-67
2023/11/22 04:46:49;;;;;;;11.55;10.35;;;;;;;;;;4965828;28;20050;-69
2023/11/22 04:49:14;;;;;;;12.23;10.93;;;;;;;;;;4958566;28;20105;-70
2023/11/22 04:51:40;;;;;;;11.93;9.82;;;;;;;;;;4975417;28;20436;-69
2023/11/22 04:54:05;;;;;;;12.25;9.80;;;;;;;;;;4975461;28;20037;-69
2023/11/22 04:56:30;;;;;;;12.35;10.43;;;;;;;;;;4975425;28;20492;-64
2023/11/22 04:58:56;;;;;;;11.88;10.13;;;;;;;;;;4975503;28;20422;-64
2023/11/22 05:01:22;;;;;;;11.60;10.05;;;;;;;;;;4958167;28;20026;-64
2023/11/22 05:03:47;;;;;;;10.40;9.32;;;;;;;;;;4975746;28;20509;-63
2023/11/22 05:09:48;;;;;;;10.02;9.05;;;;;;;;;;4976493;28;20026;-63
2023/11/22 05:12:14;;;;;;;9.32;8.52;;;;;;;;;;4976723;28;20034;-64
2023/11/22 05:14:40;;;;;;;9.88;8.98;;;;;;;;;;4976389;28;20564;-69
2023/11/22 05:17:05;;;;;;;11.52;9.05;;;;;;;;;;4976499;28;20051;-66
2023/11/22 05:19:31;;;;;;;10.27;8.40;;;;;;;;;;4976369;28;20037;-60
2023/11/22 05:21:57;;;;;;;19.55;15.27;;;;;;;;;;4976675;28;20043;-66
2023/11/22 05:24:23;;;;;;;16.65;14.45;;;;;;;;;;4958876;28;20070;-66
2023/11/22 05:26:48;;;;;;;10.45;9.40;;;;;;;;;;4975859;28;20089;-66
2023/11/22 05:29:14;;;;;;;11.32;10.18;;;;;;;;;;4976402;28;20066;-66
2023/11/22 05:31:39;;;;;;;9.48;8.40;;;;;;;;;;4958503;28;20118;-66
2023/11/22 05:34:04;;;;;;;10.23;9.23;;;;;;;;;;4976093;28;20031;-66
2023/11/22 05:36:30;;;;;;;9.50;8.38;;;;;;;;;;4976259;28;20062;-61
2023/11/22 05:38:58;;;;;;;9.70;8.73;;;;;;;;;;4976193;28;20031;-65
2023/11/22 05:41:25;;;;;;;9.60;8.80;;;;;;;;;;4976093;28;20038;-65
2023/11/22 05:43:52;;;;;;;8.88;7.63;;;;;;;;;;4958920;28;20115;-65
2023/11/22 05:46:21;;;;;;;8.70;7.85;;;;;;;;;;4975798;28;20051;-65
2023/11/22 05:48:48;;;;;;;8.93;8.05;;;;;;;;;;4975851;28;20080;-65
2023/11/22 05:51:13;;;;;;;9.02;8.23;;;;;;;;;;4975138;28;20088;-65
2023/11/22 05:53:39;;;;;;;9.25;8.45;;;;;;;;;;4957675;28;20130;-65
2023/11/22 05:56:04;;;;;;;9.70;8.80;;;;;;;;;;4975518;28;20026;-65
2023/11/22 05:58:29;;;;;;;9.55;8.00;;;;;;;;;;4975527;28;20027;-65
2023/11/22 06:00:55;;;;;;;9.70;8.82;;;;;;;;;;4975224;28;20062;-65
2023/11/22 06:03:20;;;;;;;9.18;8.30;;;;;;;;;;4975500;28;20062;-65
2023/11/22 06:05:49;;;;;;;9.43;8.45;;;;;;;;;;4975725;28;20030;-65
2023/11/22 06:08:14;;;;;;;10.50;9.52;;;;;;;;;;4975786;28;20089;-66
2023/11/22 06:10:41;;;;;;;9.93;9.02;;;;;;;;;;4975725;28;20062;-66
2023/11/22 06:13:06;;;;;;;9.57;8.43;;;;;;;;;;4975323;28;20030;-66
2023/11/22 06:15:31;;;;;;;11.15;10.05;;;;;;;;;;4975736;28;20042;-66
2023/11/22 06:17:57;;;;;;;12.20;8.10;;;;;;;;;;4958573;28;20045;-64
2023/11/22 06:20:26;;;;;;;9.00;8.10;;;;;;;;;;4975289;28;20481;-66
2023/11/22 06:22:51;;;;;;;9.43;8.35;;;;;;;;;;4975337;28;20030;-66
2023/11/22 06:25:17;;;;;;;9.13;8.30;;;;;;;;;;4975345;28;20082;-66
2023/11/22 06:27:42;;;;;;;9.45;8.52;;;;;;;;;;4975474;28;20039;-66
2023/11/22 06:30:09;;;;;;;8.68;7.82;;;;;;;;;;4957955;28;20038;-66
2023/11/22 06:32:34;;;;;;;9.68;8.55;;;;;;;;;;4975084;28;20392;-66
2023/11/22 06:35:00;;;;;;;9.73;8.80;;;;;;;;;;4974696;28;20043;-66
2023/11/22 06:37:25;;;;;;;8.85;8.00;;;;;;;;;;4958142;28;20031;-66
2023/11/22 06:39:51;;;;;;;11.32;9.23;;;;;;;;;;4975383;28;20031;-65
2023/11/22 06:42:16;;;;;;;38.25;23.98;;;;;;;;;;4957991;28;20365;-65
2023/11/22 06:44:42;;;;;;;42.88;32.33;;;;;;;;;;4974936;28;20019;-65
2023/11/22 06:47:07;;;;;;;21.50;19.25;;;;;;;;;;4974523;28;20513;-66
2023/11/22 06:49:33;;;;;;;126.88;90.40;;;;;;;;;;4957310;28;20108;-65
2023/11/22 06:51:58;;;;;;;27.58;18.88;;;;;;;;;;4974668;28;20417;-66
2023/11/22 06:54:23;;;;;;;29.52;26.50;;;;;;;;;;4974510;28;20049;-65
2023/11/22 06:56:51;;;;;;;36.25;32.40;;;;;;;;;;4974804;28;20027;-65
2023/11/22 06:59:16;;;;;;;12.85;10.70;;;;;;;;;;4974604;28;20026;-65
2023/11/22 07:01:41;;;;;;;13.05;11.75;;;;;;;;;;4974594;28;20035;-65
2023/11/22 07:04:07;;;;;;;28.70;17.70;;;;;;;;;;4959347;28;20030;-65
2023/11/22 07:06:32;;;;;;;22.58;14.23;;;;;;;;;;4978682;28;20070;-65
2023/11/22 07:08:59;;;;;;;16.88;10.32;;;;;;;;;;4961129;28;20019;-65
2023/11/22 07:11:24;;;;;;;15.10;11.73;;;;;;;;;;4978410;28;20042;-65
2023/11/22 07:13:51;;;;;;;30.45;16.17;;;;;;;;;;4960881;28;20026;-66
2023/11/22 07:16:17;;;;;;;52.65;36.88;;;;;;;;;;4960825;28;20073;-65
2023/11/22 07:18:42;;;;;;;9.82;8.80;;;;;;;;;;4978196;28;20474;-65
2023/11/22 07:21:08;;;;;;;12.20;11.00;;;;;;;;;;4978548;28;20027;-65
2023/11/22 07:23:33;;;;;;;7.85;7.15;;;;;;;;;;4978056;28;20046;-65
2023/11/22 07:25:59;;;;;;;8.57;7.68;;;;;;;;;;4978050;28;20035;-65
2023/11/22 07:28:25;;;;;;;10.68;8.52;;;;;;;;;;4978098;28;20500;-65
2023/11/22 07:30:51;;;;;;;11.23;10.02;;;;;;;;;;4978006;28;20119;-65
2023/11/22 07:33:17;;;;;;;11.48;10.27;;;;;;;;;;4977963;28;20039;-65
2023/11/22 07:35:42;;;;;;;13.48;10.02;;;;;;;;;;4960863;28;20384;-65
2023/11/22 07:38:08;;;;;;;14.35;12.25;;;;;;;;;;4977929;28;20086;-65
2023/11/22 07:40:34;;;;;;;11.40;9.43;;;;;;;;;;4977763;28;20095;-65
2023/11/22 07:42:59;;;;;;;11.68;8.82;;;;;;;;;;4977734;28;20058;-65
2023/11/22 07:45:25;;;;;;;10.35;9.25;;;;;;;;;;4960326;28;20473;-65
2023/11/22 07:47:52;;;;;;;20.45;14.82;;;;;;;;;;4960203;28;20093;-65
2023/11/22 07:50:19;;;;;;;11.48;8.40;;;;;;;;;;4960223;28;20097;-65
2023/11/22 07:52:45;;;;;;;12.75;11.45;;;;;;;;;;4977803;28;20034;-65
2023/11/22 07:55:11;;;;;;;15.40;11.15;;;;;;;;;;4977684;28;20031;-65
2023/11/22 07:57:37;;;;;;;17.27;10.63;;;;;;;;;;4977722;28;20405;-65
2023/11/22 08:00:06;;;;;;;18.02;11.10;;;;;;;;;;4977422;28;20031;-65
2023/11/22 08:02:38;;;;;;;19.35;12.00;;;;;;;;;;4977392;28;20078;-65
2023/11/22 08:05:08;;;;;;;25.63;13.48;;;;;;;;;;4960121;28;20034;-65
2023/11/22 08:07:35;;;;;;;18.47;11.27;;;;;;;;;;4977439;28;20500;-65
2023/11/22 08:10:09;;;;;;;18.30;10.75;;;;;;;;;;4977310;28;20034;-65
2023/11/22 08:12:35;;;;;;;18.52;10.68;;;;;;;;;;4977350;28;20031;-65
2023/11/22 08:15:02;;;;;;;19.08;11.93;;;;;;;;;;4976389;28;20030;-65
2023/11/22 08:17:27;;;;;;;17.80;12.07;;;;;;;;;;4977203;28;20031;-65
2023/11/22 08:19:52;;;;;;;11.18;8.98;;;;;;;;;;4977065;28;20033;-65
2023/11/22 08:22:18;;;;;;;38.10;19.10;;;;;;;;;;4977096;28;20025;-65
2023/11/22 08:24:43;;;;;;;27.40;15.65;;;;;;;;;;4976998;28;20035;-65
2023/11/22 08:27:09;;;;;;;40.15;23.13;;;;;;;;;;4976994;28;20080;-65
2023/11/22 08:29:34;;;;;;;26.67;13.98;;;;;;;;;;4959578;28;20035;-68
2023/11/22 08:32:00;;;;;;;19.15;10.25;;;;;;;;;;4976826;28;20089;-69
2023/11/22 08:34:25;;;;;;;24.38;15.60;;;;;;;;;;4976730;28;20038;-69
2023/11/22 08:36:51;;;;;;;14.27;11.30;;;;;;;;;;4959450;28;20027;-68
2023/11/22 08:39:16;;;;;;;18.23;12.73;;;;;;;;;;4959425;28;20122;-69
2023/11/22 08:41:41;;;;;;;20.05;17.33;;;;;;;;;;4976708;28;20578;-69
2023/11/22 08:44:07;;;;;;;21.95;18.30;;;;;;;;;;4976740;28;20113;-68
2023/11/22 08:46:32;;;;;;;19.48;16.38;;;;;;;;;;4976520;28;20117;-69
2023/11/22 08:48:57;;;;;;;24.20;19.88;;;;;;;;;;4959337;28;20031;-69
2023/11/22 08:51:23;;;;;;;13.98;12.18;;;;;;;;;;4976621;28;20042;-69
2023/11/22 08:53:48;;;;;;;16.73;11.27;;;;;;;;;;4976638;28;20050;-69
2023/11/22 08:56:15;;;;;;;59.08;41.35;;;;;;;;;;4976660;28;20030;-69
2023/11/22 08:58:41;;;;;;;12.82;10.30;;;;;;;;;;4976391;28;20019;-69
2023/11/22 09:01:07;;;;;;;113.00;101.43;;;;;;;;;;4959169;28;20520;-69
2023/11/22 09:03:33;;;;;;;33.65;30.17;;;;;;;;;;4976331;28;20473;-69
2023/11/22 09:05:58;;;;;;;30.13;21.38;;;;;;;;;;4959035;28;20064;-65
2023/11/22 09:08:26;;;;;;;60.92;31.13;;;;;;;;;;5013237;23;20042;-66
2023/11/22 09:10:51;;;;;;;28.77;18.58;;;;;;;;;;5006816;22;20504;-65
2023/11/22 09:13:17;;;;;;;90.05;53.47;;;;;;;;;;4995628;28;20054;-66
2023/11/22 09:15:44;;;;;;;82.63;60.25;;;;;;;;;;4995498;28;20038;-65
2023/11/22 09:18:10;;;;;;;164.38;102.40;;;;;;;;;;4995781;28;20112;-66
2023/11/22 09:20:35;;;;;;;120.38;65.22;;;;;;;;;;4995810;28;20400;-65
2023/11/22 09:23:00;;;;;;;180.57;133.63;;;;;;;;;;4995970;28;20023;-65
2023/11/22 09:25:30;;;;;;;184.43;100.90;;;;;;;;;;4995382;28;20023;-65
2023/11/22 09:27:58;;;;;;;28.73;18.35;;;;;;;;;;4995221;28;20114;-65
2023/11/22 09:33:00;;;;;;;68.07;47.78;;;;;;;;;;4995503;28;20030;-66
2023/11/22 09:35:25;;;;;;;23.73;19.55;;;;;;;;;;4994233;28;20125;-65
2023/11/22 09:37:51;;;;;;;51.90;34.42;;;;;;;;;;4995689;28;20033;-65
2023/11/22 09:40:22;;;;;;;17.48;14.18;;;;;;;;;;4977726;28;20118;-65
2023/11/22 09:42:51;;;;;;;20.83;14.93;;;;;;;;;;4995034;28;20033;-65
2023/11/22 09:45:20;;;;;;;19.38;13.65;;;;;;;;;;4995297;28;20045;-65
2023/11/22 09:47:45;;;;;;;24.40;17.90;;;;;;;;;;4995252;28;20461;-65
2023/11/22 09:50:24;;;;;;;36.80;24.73;;;;;;;;;;4994978;28;20060;-65
2023/11/22 09:52:54;;;;;;;9.43;7.90;;;;;;;;;;4994937;28;20065;-65
2023/11/22 09:55:27;;;;;;;13.88;10.57;;;;;;;;;;4995057;28;20034;-65
2023/11/22 09:57:53;;;;;;;8.93;8.07;;;;;;;;;;4993709;28;20038;-65
2023/11/22 10:00:21;;;;;;;15.65;12.40;;;;;;;;;;4995108;28;20084;-65
2023/11/22 10:02:47;;;;;;;18.70;13.60;;;;;;;;;;4994256;28;20031;-65
2023/11/22 10:05:12;;;;;;;14.75;11.85;;;;;;;;;;4994943;28;20208;-65
2023/11/22 10:07:38;;;;;;;7.68;6.75;;;;;;;;;;4994686;28;20034;-65
2023/11/22 10:10:06;;;;;;;24.67;17.05;;;;;;;;;;4994806;28;20481;-65
2023/11/22 10:12:32;;;;;;;16.83;12.68;;;;;;;;;;4994849;28;20044;-65
2023/11/22 10:15:13;;;;;;;8.40;7.03;;;;;;;;;;4994478;28;20470;-65
2023/11/22 10:17:39;;;;;;;40.78;19.42;;;;;;;;;;4994801;28;20034;-65
2023/11/22 10:20:10;;;;;;;34.83;18.00;;;;;;;;;;4994476;28;20495;-65
2023/11/22 10:22:44;;;;;;;7.20;6.32;;;;;;;;;;4993114;28;20030;-65
2023/11/22 10:25:10;;;;;;;23.05;15.48;;;;;;;;;;4994321;28;20030;-65
2023/11/22 10:27:37;;;;;;;39.20;19.30;;;;;;;;;;4994585;28;20088;-65
2023/11/22 10:30:03;;;;;;;53.53;26.55;;;;;;;;;;4994361;28;20113;-65
2023/11/22 10:32:28;;;;;;;41.95;22.42;;;;;;;;;;4995080;28;20058;-65
2023/11/22 10:34:54;;;;;;;14.93;11.70;;;;;;;;;;4993304;28;20034;-65
2023/11/22 10:37:19;;;;;;;10.02;9.00;;;;;;;;;;4994463;28;20034;-65
2023/11/22 10:39:50;;;;;;;21.23;18.55;;;;;;;;;;4993190;28;20073;-65
2023/11/22 10:42:15;;;;;;;9.48;7.55;;;;;;;;;;4976802;28;20030;-65
2023/11/22 10:44:41;;;;;;;21.30;17.55;;;;;;;;;;4992952;28;20105;-65
2023/11/22 10:47:06;;;;;;;16.75;12.32;;;;;;;;;;4994328;28;20027;-65
2023/11/22 10:49:32;;;;;;;15.35;11.80;;;;;;;;;;4993288;28;20030;-68
2023/11/22 10:51:57;;;;;;;20.02;14.27;;;;;;;;;;4992782;28;20440;-69
2023/11/22 10:54:24;;;;;;;8.82;7.93;;;;;;;;;;4994656;28;20026;-69
2023/11/22 10:56:54;;;;;;;25.30;17.20;;;;;;;;;;4993999;28;20041;-69
2023/11/22 10:59:22;;;;;;;15.93;12.43;;;;;;;;;;4993219;28;20480;-69
2023/11/22 11:01:52;;;;;;;7.45;6.78;;;;;;;;;;4992605;28;20027;-68
2023/11/22 11:04:18;;;;;;;7.90;6.88;;;;;;;;;;4994320;28;20034;-69
2023/11/22 11:06:44;;;;;;;14.93;11.95;;;;;;;;;;4993913;28;20026;-69
2023/11/22 11:09:10;;;;;;;88.30;50.30;;;;;;;;;;4993001;28;20453;-68
2023/11/22 11:11:36;;;;;;;11.02;8.70;;;;;;;;;;4993784;28;20050;-69
2023/11/22 11:14:03;;;;;;;116.07;48.78;;;;;;;;;;4994147;28;20037;-69
2023/11/22 11:16:31;;;;;;;195.82;78.57;;;;;;;;;;4992570;28;20045;-69
2023/11/22 11:18:56;;;;;;;36.42;22.75;;;;;;;;;;4994419;28;20046;-69
2023/11/22 11:21:22;;;;;;;60.65;30.05;;;;;;;;;;4993788;28;20030;-68
2023/11/22 11:23:52;;;;;;;188.18;90.25;;;;;;;;;;4992734;28;20046;-69
2023/11/22 11:26:18;;;;;;;135.18;65.78;;;;;;;;;;4994112;28;20109;-69
2023/11/22 11:28:45;;;;;;;138.73;66.43;;;;;;;;;;4993723;28;20088;-69
2023/11/22 11:31:11;;;;;;;119.25;62.28;;;;;;;;;;4993986;28;20062;-69
2023/11/22 11:33:53;;;;;;;52.10;32.17;;;;;;;;;;4994330;28;20072;-69
2023/11/22 11:36:22;;;;;;;40.67;26.33;;;;;;;;;;4993651;28;20073;-69
2023/11/22 11:38:49;;;;;;;22.42;16.33;;;;;;;;;;4994005;28;20042;-68
2023/11/22 11:41:14;;;;;;;21.38;14.07;;;;;;;;;;4993631;28;20026;-68
2023/11/22 11:43:44;;;;;;;81.85;45.20;;;;;;;;;;4992792;28;20035;-69
2023/11/22 11:46:14;;;;;;;16.38;9.85;;;;;;;;;;4994190;28;20491;-69
2023/11/22 11:48:44;;;;;;;29.05;18.83;;;;;;;;;;4993569;28;20037;-69
2023/11/22 11:51:13;;;;;;;11.50;9.82;;;;;;;;;;4995850;28;20038;-69
2023/11/22 11:53:39;;;;;;;12.07;9.02;;;;;;;;;;4997397;28;20034;-69
2023/11/22 11:56:04;;;;;;;13.75;9.57;;;;;;;;;;4997546;28;20041;-69
2023/11/22 11:58:30;;;;;;;15.82;11.90;;;;;;;;;;4996144;28;20022;-69
2023/11/22 12:00:55;;;;;;;20.20;14.18;;;;;;;;;;4995586;28;20420;-69
2023/11/22 12:03:22;;;;;;;18.80;12.82;;;;;;;;;;4996824;28;20034;-68
2023/11/22 12:05:51;;;;;;;12.32;9.82;;;;;;;;;;4997000;28;20461;-69
2023/11/22 12:08:18;;;;;;;30.27;21.70;;;;;;;;;;4979287;28;20039;-69
2023/11/22 12:10:48;;;;;;;53.10;40.08;;;;;;;;;;4996726;28;20053;-68
2023/11/22 12:13:16;;;;;;;29.80;15.25;;;;;;;;;;4996748;28;20113;-68
2023/11/22 12:15:41;;;;;;;32.70;19.73;;;;;;;;;;4997193;28;20105;-69
2023/11/22 12:18:07;;;;;;;32.80;20.58;;;;;;;;;;4996970;28;20065;-68
2023/11/22 12:20:33;;;;;;;34.80;24.90;;;;;;;;;;4996875;28;20049;-69
2023/11/22 12:23:00;;;;;;;14.18;10.98;;;;;;;;;;4995413;28;20022;-68
2023/11/22 12:25:32;;;;;;;16.35;13.95;;;;;;;;;;4997105;28;20045;-69
2023/11/22 12:27:57;;;;;;;12.13;10.15;;;;;;;;;;4996484;28;20045;-69
2023/11/22 12:30:32;;;;;;;53.05;35.05;;;;;;;;;;4996351;28;20031;-69
2023/11/22 12:33:00;;;;;;;79.47;56.75;;;;;;;;;;4996741;28;20038;-68
2023/11/22 12:35:26;;;;;;;17.83;13.02;;;;;;;;;;4996314;28;20034;-68
2023/11/22 12:37:54;;;;;;;25.73;17.95;;;;;;;;;;4996619;28;20409;-68
2023/11/22 12:40:20;;;;;;;31.10;19.27;;;;;;;;;;4996285;28;20045;-69
2023/11/22 12:42:47;;;;;;;25.45;14.75;;;;;;;;;;4996217;28;20015;-69
2023/11/22 12:45:28;;;;;;;16.10;10.32;;;;;;;;;;4995431;28;20045;-69
2023/11/22 12:47:54;;;;;;;13.25;10.35;;;;;;;;;;4996674;28;20038;-69
2023/11/22 12:50:30;;;;;;;11.38;9.30;;;;;;;;;;4996075;28;20034;-69
2023/11/22 12:52:55;;;;;;;24.98;14.93;;;;;;;;;;4996293;28;20376;-68
2023/11/22 12:55:21;;;;;;;16.40;12.13;;;;;;;;;;4995893;28;20037;-68
2023/11/22 12:57:56;;;;;;;13.25;9.02;;;;;;;;;;4996184;28;20030;-69
2023/11/22 13:00:21;;;;;;;29.70;17.33;;;;;;;;;;4995923;28;20034;-69
2023/11/22 13:02:47;;;;;;;10.73;8.10;;;;;;;;;;4995917;28;20040;-68
2023/11/22 13:05:15;;;;;;;12.23;9.35;;;;;;;;;;4996278;28;20468;-69
2023/11/22 13:07:43;;;;;;;15.43;10.75;;;;;;;;;;4994617;28;20041;-68
2023/11/22 13:10:09;;;;;;;18.70;13.00;;;;;;;;;;4995706;28;20500;-69
2023/11/22 13:12:35;;;;;;;20.20;14.15;;;;;;;;;;4996199;28;20042;-69
2023/11/22 13:15:00;;;;;;;62.72;38.45;;;;;;;;;;4994953;28;20035;-69
2023/11/22 13:17:26;;;;;;;38.30;21.48;;;;;;;;;;4993344;28;20058;-69
2023/11/22 13:19:51;;;;;;;47.08;26.88;;;;;;;;;;4994410;28;20023;-69
2023/11/22 13:22:17;;;;;;;30.17;20.02;;;;;;;;;;4993383;28;20026;-69
2023/11/22 13:24:42;;;;;;;15.40;11.57;;;;;;;;;;4994460;28;20108;-69
2023/11/22 13:27:11;;;;;;;124.60;72.18;;;;;;;;;;4993034;28;20069;-68
2023/11/22 13:29:37;;;;;;;88.43;52.88;;;;;;;;;;4992939;28;20109;-69
2023/11/22 13:32:04;;;;;;;91.35;60.90;;;;;;;;;;4993005;28;20188;-69
2023/11/22 13:34:29;;;;;;;22.45;15.68;;;;;;;;;;4994456;28;20021;-68
2023/11/22 13:36:55;;;;;;;11.57;8.82;;;;;;;;;;4994353;28;20384;-68
2023/11/22 13:39:21;;;;;;;11.35;7.57;;;;;;;;;;4994258;28;20021;-69
2023/11/22 13:41:47;;;;;;;9.93;7.75;;;;;;;;;;4994377;28;20049;-68
2023/11/22 13:44:13;;;;;;;14.40;9.35;;;;;;;;;;4994249;28;20473;-69
2023/11/22 13:46:38;;;;;;;12.77;9.27;;;;;;;;;;4993941;28;20034;-69
2023/11/22 13:49:06;;;;;;;31.20;17.55;;;;;;;;;;4993862;28;20057;-69
2023/11/22 13:51:32;;;;;;;115.68;52.05;;;;;;;;;;4993818;28;20038;-69
2023/11/22 13:53:57;;;;;;;72.63;34.70;;;;;;;;;;4994042;28;20026;-66
2023/11/22 13:56:23;;;;;;;46.15;27.25;;;;;;;;;;4993682;28;20053;-70
2023/11/22 13:58:48;;;;;;;21.55;14.77;;;;;;;;;;4993847;28;20029;-71
2023/11/22 14:01:21;;;;;;;22.08;12.43;;;;;;;;;;4992513;28;20081;-70
2023/11/22 14:03:47;;;;;;;22.90;13.20;;;;;;;;;;4993737;28;20058;-70
2023/11/22 14:06:14;;;;;;;46.00;22.67;;;;;;;;;;4993684;28;20058;-70
2023/11/22 14:08:40;;;;;;;13.38;10.30;;;;;;;;;;4992393;28;20041;-70
2023/11/22 14:11:05;;;;;;;10.02;7.47;;;;;;;;;;4991946;28;20054;-70
2023/11/22 14:13:31;;;;;;;42.80;18.58;;;;;;;;;;4993659;28;20577;-70
2023/11/22 14:16:00;;;;;;;62.63;27.92;;;;;;;;;;4994615;28;20389;-70
2023/11/22 14:18:26;;;;;;;59.80;35.90;;;;;;;;;;4992462;28;20022;-70
2023/11/22 14:20:51;;;;;;;35.47;25.50;;;;;;;;;;4993658;28;20041;-70
2023/11/22 14:23:17;;;;;;;21.52;16.23;;;;;;;;;;4993159;28;20027;-70